Time;durP1;ratioP1;P1;durP2;ratioP2;P2;SDS_P1;SDS_P2;PMS_P1;PMS_P2;Temp;Humidity;BMP_temperature;BMP_pressure;BME280_temperature;BME280_humidity;BME280_pressure;Samples;Min_cycle;Max_cycle;Signal;HPM_P1;HPM_P2
2022/01/02 00:02:14;;;;;;;15.60;6.70;;;;;;;8.31;100.00;100120.40;103686;1302;24228;-25
2022/01/02 00:04:44;;;;;;;8.70;6.20;;;;;;;8.34;100.00;100115.94;103657;1302;24346;-30
2022/01/02 00:07:10;;;;;;;11.30;5.80;;;;;;;8.36;100.00;100112.38;103827;1302;22694;-30
2022/01/02 00:09:36;;;;;;;10.90;6.60;;;;;;;8.34;100.00;100106.14;103808;1302;24280;-28
2022/01/02 00:12:03;;;;;;;11.50;6.20;;;;;;;8.30;100.00;100103.84;103602;1302;24302;-30
2022/01/02 00:14:29;;;;;;;11.30;6.10;;;;;;;8.27;100.00;100108.08;103855;1302;22510;-30
2022/01/02 00:16:55;;;;;;;12.20;7.00;;;;;;;8.27;100.00;100112.80;104099;1302;24364;-29
2022/01/02 00:19:29;;;;;;;12.60;5.90;;;;;;;8.38;100.00;100116.63;103784;1302;22512;-29
2022/01/02 00:21:56;;;;;;;13.00;8.30;;;;;;;8.29;100.00;100108.70;103686;1302;24217;-32
2022/01/02 00:24:22;;;;;;;17.60;7.30;;;;;;;8.28;100.00;100108.95;103463;1302;24291;-30
2022/01/02 00:26:50;;;;;;;13.30;7.50;;;;;;;8.27;100.00;100107.48;103545;1302;24221;-25
2022/01/02 00:29:16;;;;;;;10.90;6.60;;;;;;;8.19;100.00;100103.84;103551;1302;24333;-27
2022/01/02 00:31:41;;;;;;;11.70;7.50;;;;;;;8.19;100.00;100097.95;103604;1302;24217;-27
2022/01/02 00:34:08;;;;;;;15.80;6.80;;;;;;;8.21;100.00;100094.19;103665;1301;24178;-27
2022/01/02 00:36:34;;;;;;;11.00;6.20;;;;;;;8.26;100.00;100084.50;103612;1302;22600;-32
2022/01/02 00:39:00;;;;;;;11.30;6.50;;;;;;;8.26;100.00;100078.84;103667;1302;24295;-27
2022/01/02 00:41:31;;;;;;;17.20;7.90;;;;;;;8.23;100.00;100082.72;103539;1302;24165;-25
2022/01/02 00:44:02;;;;;;;16.40;7.30;;;;;;;8.30;100.00;100075.48;103649;1302;24307;-25
2022/01/02 00:46:31;;;;;;;11.60;6.70;;;;;;;8.26;100.00;100077.88;103606;1303;24419;-25
2022/01/02 00:49:01;;;;;;;14.60;7.90;;;;;;;8.27;100.00;100080.52;104028;1302;24182;-25
2022/01/02 00:51:34;;;;;;;12.00;8.20;;;;;;;8.25;100.00;100086.23;103932;1302;22619;-25
2022/01/02 00:54:00;;;;;;;18.10;8.70;;;;;;;8.24;100.00;100087.37;103740;1302;23904;-24
2022/01/02 00:56:27;;;;;;;11.30;8.00;;;;;;;8.25;100.00;100088.23;103785;1300;24356;-26
2022/01/02 00:58:58;;;;;;;11.90;6.50;;;;;;;8.24;100.00;100089.90;103828;1302;23066;-26
2022/01/02 01:01:28;;;;;;;10.90;7.30;;;;;;;8.30;100.00;100093.86;103817;1302;24392;-24
2022/01/02 01:03:55;;;;;;;19.20;7.70;;;;;;;8.21;100.00;100088.45;103705;1302;22606;-25
2022/01/02 01:06:24;;;;;;;13.90;7.30;;;;;;;8.18;100.00;100081.92;103658;1302;24354;-30
2022/01/02 01:08:52;;;;;;;15.00;6.60;;;;;;;8.22;100.00;100077.65;103592;1302;24223;-30
2022/01/02 01:11:19;;;;;;;24.30;10.10;;;;;;;8.13;100.00;100076.98;103579;1302;24252;-25
2022/01/02 01:13:45;;;;;;;13.00;7.20;;;;;;;8.13;100.00;100082.89;103556;1302;24233;-29
2022/01/02 01:16:13;;;;;;;14.70;8.30;;;;;;;8.09;100.00;100083.16;103544;1302;24253;-24
2022/01/02 01:18:40;;;;;;;13.10;8.00;;;;;;;8.10;100.00;100072.31;103643;1302;24405;-25
2022/01/02 01:21:06;;;;;;;14.00;6.40;;;;;;;8.02;100.00;100055.31;103508;1302;24303;-24
2022/01/02 01:23:32;;;;;;;10.40;7.10;;;;;;;7.99;100.00;100048.59;103529;1302;24206;-29
2022/01/02 01:25:58;;;;;;;9.40;5.50;;;;;;;7.95;100.00;100039.48;103536;1302;24382;-29
2022/01/02 01:28:25;;;;;;;18.40;6.50;;;;;;;7.92;100.00;100035.50;103554;1302;24213;-29
2022/01/02 01:30:51;;;;;;;12.00;6.80;;;;;;;7.90;100.00;100036.83;103554;1302;24304;-25
2022/01/02 01:33:17;;;;;;;12.00;6.40;;;;;;;7.85;100.00;100034.87;103530;1302;24321;-25
2022/01/02 01:35:43;;;;;;;8.90;5.80;;;;;;;7.80;100.00;100034.11;103539;1302;24208;-25
2022/01/02 01:38:10;;;;;;;11.90;6.90;;;;;;;7.79;100.00;100028.75;103510;1301;24316;-25
2022/01/02 01:40:38;;;;;;;10.80;6.30;;;;;;;7.73;100.00;100025.39;103588;1302;24333;-29
2022/01/02 01:43:05;;;;;;;13.10;5.90;;;;;;;7.71;100.00;100026.52;103551;1302;24310;-25
2022/01/02 01:45:32;;;;;;;13.40;6.80;;;;;;;7.76;100.00;100031.05;103525;1302;22523;-24
2022/01/02 01:48:02;;;;;;;14.40;8.30;;;;;;;7.77;100.00;100028.77;103556;1302;22696;-25
2022/01/02 01:50:30;;;;;;;18.60;8.90;;;;;;;7.69;100.00;100034.77;103436;1302;22566;-30
2022/01/02 01:52:56;;;;;;;16.40;7.30;;;;;;;7.66;100.00;100037.90;103488;1302;24343;-29
2022/01/02 01:55:22;;;;;;;14.10;8.30;;;;;;;7.67;100.00;100042.30;103585;1302;22654;-24
2022/01/02 01:57:50;;;;;;;12.60;6.20;;;;;;;7.58;100.00;100040.17;103538;1302;24333;-25
2022/01/02 02:00:17;;;;;;;11.90;7.70;;;;;;;7.58;100.00;100041.45;103525;1303;24216;-25
2022/01/02 02:02:44;;;;;;;10.90;8.20;;;;;;;7.49;100.00;100040.14;103682;1301;24435;-30
2022/01/02 02:05:11;;;;;;;13.90;8.00;;;;;;;7.43;100.00;100038.02;103525;1302;24233;-25
2022/01/02 02:07:40;;;;;;;10.10;6.90;;;;;;;7.44;100.00;100035.41;103559;1302;24325;-24
2022/01/02 02:12:39;;;;;;;18.00;9.40;;;;;;;7.52;100.00;100026.42;103601;1302;23856;-25
2022/01/02 02:15:07;;;;;;;23.30;8.70;;;;;;;7.51;100.00;100029.42;103545;1302;22723;-30
2022/01/02 02:17:34;;;;;;;20.40;9.60;;;;;;;7.47;100.00;100027.11;103569;1302;22950;-30
2022/01/02 02:20:07;;;;;;;17.10;10.00;;;;;;;7.43;100.00;100024.26;103568;1302;24189;-25
2022/01/02 02:22:35;;;;;;;21.20;9.20;;;;;;;7.45;100.00;100017.19;103546;1302;24984;-25
2022/01/02 02:25:01;;;;;;;23.70;10.70;;;;;;;7.48;100.00;100013.48;103615;1302;24223;-25
2022/01/02 02:27:27;;;;;;;20.40;10.40;;;;;;;7.47;100.00;100012.11;103535;1302;24203;-25
2022/01/02 02:29:54;;;;;;;15.10;7.90;;;;;;;7.45;100.00;100006.98;103621;1299;22782;-29
2022/01/02 02:32:20;;;;;;;19.40;11.00;;;;;;;7.47;100.00;100005.52;103494;1302;24228;-29
2022/01/02 02:34:46;;;;;;;18.20;7.60;;;;;;;7.36;100.00;100008.30;103545;1302;22616;-24
2022/01/02 02:37:12;;;;;;;19.40;8.90;;;;;;;7.26;100.00;100004.41;103512;1302;24348;-24
2022/01/02 02:39:38;;;;;;;21.60;10.40;;;;;;;7.21;100.00;100005.22;103563;1302;24233;-29
2022/01/02 02:42:12;;;;;;;21.60;10.90;;;;;;;7.18;100.00;100004.46;103574;1302;24398;-29
2022/01/02 02:44:40;;;;;;;15.70;8.30;;;;;;;7.10;100.00;100000.16;103557;1302;22877;-25
2022/01/02 02:49:39;;;;;;;19.80;10.20;;;;;;;7.14;100.00;99990.48;103527;1302;22959;-30
2022/01/02 02:52:12;;;;;;;17.00;9.90;;;;;;;7.08;100.00;99983.65;103571;1302;24342;-25
2022/01/02 02:54:40;;;;;;;18.10;9.60;;;;;;;7.12;100.00;99977.55;103393;1302;24225;-30
2022/01/02 02:57:12;;;;;;;15.80;9.50;;;;;;;7.09;100.00;99972.14;103641;1303;24434;-25
2022/01/02 02:59:38;;;;;;;20.60;9.30;;;;;;;7.02;100.00;99970.70;103626;1300;22509;-25
2022/01/02 03:02:04;;;;;;;16.10;9.20;;;;;;;7.01;100.00;99967.42;103545;1300;24219;-25
2022/01/02 03:04:30;;;;;;;34.70;9.20;;;;;;;6.92;100.00;99967.15;103627;1300;24212;-29
2022/01/02 03:06:57;;;;;;;24.40;11.00;;;;;;;6.84;100.00;99958.86;103542;1300;24313;-25
2022/01/02 03:09:37;;;;;;;17.50;9.90;;;;;;;6.94;100.00;99949.33;103527;1301;24341;-25
2022/01/02 03:12:05;;;;;;;18.60;10.20;;;;;;;7.00;100.00;99938.89;103521;1302;24189;-27
2022/01/02 03:14:32;;;;;;;17.80;10.30;;;;;;;7.00;100.00;99930.30;103512;1300;24307;-32
2022/01/02 03:16:58;;;;;;;24.60;9.40;;;;;;;7.01;100.00;99928.46;103625;1303;24317;-32
2022/01/02 03:19:24;;;;;;;23.70;10.40;;;;;;;6.97;100.00;99928.09;103544;1300;24229;-25
2022/01/02 03:21:50;;;;;;;17.50;9.40;;;;;;;6.96;100.00;99926.81;103546;1302;24376;-29
2022/01/02 03:24:17;;;;;;;19.70;8.60;;;;;;;6.97;100.00;99922.64;103578;1303;24397;-25
2022/01/02 03:26:43;;;;;;;20.40;9.60;;;;;;;7.01;100.00;99917.09;103540;1300;24322;-25
2022/01/02 03:29:09;;;;;;;16.60;7.70;;;;;;;6.92;100.00;99916.25;103519;1303;24126;-24
2022/01/02 03:31:35;;;;;;;20.70;8.90;;;;;;;6.87;100.00;99920.45;103545;1300;24182;-29
2022/01/02 03:34:01;;;;;;;27.00;8.30;;;;;;;6.77;100.00;99920.10;103573;1301;24259;-25
2022/01/02 03:36:27;;;;;;;17.70;9.20;;;;;;;6.76;100.00;99922.52;103527;1300;22520;-29
2022/01/02 03:38:54;;;;;;;18.30;8.40;;;;;;;6.73;100.00;99922.99;103534;1303;24149;-27
2022/01/02 03:41:19;;;;;;;16.60;7.30;;;;;;;6.68;100.00;99915.19;103537;1301;24315;-27
2022/01/02 03:43:46;;;;;;;13.40;7.60;;;;;;;6.65;100.00;99908.37;103444;1303;24410;-29
2022/01/02 03:46:12;;;;;;;13.50;8.10;;;;;;;6.63;100.00;99899.71;103584;1300;24322;-25
2022/01/02 03:48:38;;;;;;;12.40;7.80;;;;;;;6.59;100.00;99888.77;103496;1300;24230;-30
2022/01/02 03:51:05;;;;;;;12.70;7.20;;;;;;;6.55;100.00;99876.33;103627;1303;24304;-30
2022/01/02 03:53:31;;;;;;;10.50;7.00;;;;;;;6.48;100.00;99871.42;103597;1300;22722;-30
2022/01/02 03:55:57;;;;;;;15.00;7.20;;;;;;;6.46;100.00;99872.05;103476;1302;24148;-29
2022/01/02 03:58:23;;;;;;;21.00;8.40;;;;;;;6.44;100.00;99870.84;103551;1300;24217;-25
2022/01/02 04:00:49;;;;;;;12.00;7.00;;;;;;;6.45;100.00;99865.46;103655;1300;24317;-29
2022/01/02 04:03:16;;;;;;;18.50;8.40;;;;;;;6.44;100.00;99858.42;103541;1300;24200;-24
2022/01/02 04:05:43;;;;;;;8.10;5.70;;;;;;;6.45;100.00;99852.39;103574;1300;24211;-27
2022/01/02 04:08:09;;;;;;;15.30;7.60;;;;;;;6.44;100.00;99848.61;103577;1302;24447;-29
2022/01/02 04:10:35;;;;;;;17.60;9.20;;;;;;;6.45;100.00;99845.29;103190;1302;677845;-30
2022/01/02 04:13:02;;;;;;;12.60;8.10;;;;;;;6.46;100.00;99835.79;103506;1303;24338;-25
2022/01/02 04:15:28;;;;;;;8.70;6.00;;;;;;;6.44;100.00;99826.58;103534;1300;24223;-25
2022/01/02 04:17:54;;;;;;;19.20;8.00;;;;;;;6.43;100.00;99825.95;103553;1300;24220;-25
2022/01/02 04:20:20;;;;;;;11.60;7.20;;;;;;;6.45;100.00;99822.88;103449;1300;24325;-29
2022/01/02 04:22:46;;;;;;;18.50;6.80;;;;;;;6.43;100.00;99811.06;103558;1302;24336;-29
2022/01/02 04:25:13;;;;;;;12.00;7.40;;;;;;;6.43;100.00;99814.23;103583;1300;24247;-29
2022/01/02 04:27:39;;;;;;;16.60;5.20;;;;;;;6.42;100.00;99803.13;103609;1301;24310;-29
2022/01/02 04:30:07;;;;;;;10.80;7.40;;;;;;;6.35;100.00;99801.32;103565;1303;24249;-29
2022/01/02 04:32:34;;;;;;;12.80;7.10;;;;;;;6.37;100.00;99800.46;103593;1300;24190;-25
2022/01/02 04:35:00;;;;;;;10.00;6.90;;;;;;;6.34;100.00;99798.81;103528;1300;24211;-25
2022/01/02 04:37:27;;;;;;;14.10;6.90;;;;;;;6.28;100.00;99791.75;103536;1300;24221;-29
2022/01/02 04:39:53;;;;;;;11.00;6.60;;;;;;;6.24;100.00;99792.16;103578;1301;24249;-25
2022/01/02 04:42:19;;;;;;;10.60;5.40;;;;;;;6.21;100.00;99783.42;103563;1300;24330;-25
2022/01/02 04:44:45;;;;;;;14.50;6.20;;;;;;;6.21;100.00;99775.74;103600;1303;24196;-25
2022/01/02 04:47:12;;;;;;;16.60;8.00;;;;;;;6.16;100.00;99771.91;103590;1301;24353;-29
2022/01/02 04:49:39;;;;;;;14.70;8.30;;;;;;;6.12;100.00;99766.64;103615;1300;24173;-24
2022/01/02 04:52:05;;;;;;;13.90;8.20;;;;;;;6.13;100.00;99760.41;103529;1300;24223;-29
2022/01/02 04:54:31;;;;;;;20.70;9.50;;;;;;;6.14;100.00;99753.97;103567;1300;24380;-25
2022/01/02 04:56:57;;;;;;;24.00;10.60;;;;;;;6.13;100.00;99750.34;103603;1300;24314;-30
2022/01/02 04:59:23;;;;;;;24.30;10.50;;;;;;;6.12;100.00;99738.50;103530;1300;24259;-30
2022/01/02 05:01:49;;;;;;;19.50;9.50;;;;;;;6.10;100.00;99734.77;103556;1300;24348;-30
2022/01/02 05:04:15;;;;;;;22.50;9.90;;;;;;;6.10;100.00;99725.19;103572;1300;24218;-30
2022/01/02 05:06:41;;;;;;;15.20;8.60;;;;;;;6.09;100.00;99714.79;103557;1300;24311;-29
2022/01/02 05:09:07;;;;;;;22.90;10.20;;;;;;;6.08;100.00;99704.77;103556;1300;24339;-29
2022/01/02 05:11:34;;;;;;;18.10;10.20;;;;;;;6.05;100.00;99692.46;103649;1300;24188;-25
2022/01/02 05:13:59;;;;;;;23.10;10.30;;;;;;;6.05;100.00;99697.41;103618;1300;24332;-26
2022/01/02 05:16:26;;;;;;;28.70;10.00;;;;;;;6.01;100.00;99690.55;103537;1300;24301;-29
2022/01/02 05:18:52;;;;;;;23.00;10.20;;;;;;;5.97;100.00;99681.88;103574;1300;24216;-25
2022/01/02 05:21:18;;;;;;;22.00;9.90;;;;;;;5.98;100.00;99675.98;103613;1300;25348;-29
2022/01/02 05:23:44;;;;;;;18.00;7.80;;;;;;;5.94;100.00;99675.81;103589;1300;24365;-29
2022/01/02 05:26:11;;;;;;;19.80;9.10;;;;;;;5.95;100.00;99672.50;103524;1300;24352;-25
2022/01/02 05:28:37;;;;;;;21.00;8.70;;;;;;;5.99;100.00;99666.79;103596;1300;22845;-29
2022/01/02 05:31:04;;;;;;;13.70;7.60;;;;;;;6.02;100.00;99661.99;103631;1300;24309;-29
2022/01/02 05:33:30;;;;;;;14.50;6.80;;;;;;;6.06;100.00;99659.95;103497;1300;24418;-29
2022/01/02 05:35:56;;;;;;;17.70;8.40;;;;;;;6.06;100.00;99657.34;103537;1300;24198;-31
2022/01/02 05:38:22;;;;;;;10.70;7.30;;;;;;;6.05;100.00;99656.38;103526;1300;24241;-26
2022/01/02 05:40:50;;;;;;;18.70;9.10;;;;;;;6.03;100.00;99659.01;103585;1300;24369;-30
2022/01/02 05:43:16;;;;;;;24.00;8.20;;;;;;;5.99;100.00;99670.89;103584;1300;24240;-30
2022/01/02 05:45:43;;;;;;;13.70;7.60;;;;;;;5.99;100.00;99681.67;103573;1300;24204;-25
2022/01/02 05:48:09;;;;;;;17.30;8.20;;;;;;;5.99;100.00;99682.38;103613;1300;24213;-30
2022/01/02 05:50:35;;;;;;;17.40;9.50;;;;;;;5.99;100.00;99675.68;103609;1300;24300;-30
2022/01/02 05:53:02;;;;;;;20.40;8.90;;;;;;;5.99;100.00;99662.18;103540;1301;22505;-31
2022/01/02 05:55:29;;;;;;;27.30;10.70;;;;;;;5.96;100.00;99649.50;103548;1300;22844;-25
2022/01/02 05:57:55;;;;;;;35.00;13.10;;;;;;;5.95;100.00;99650.34;103530;1300;24224;-30
2022/01/02 06:00:21;;;;;;;21.90;11.90;;;;;;;5.93;100.00;99644.45;103566;1300;24189;-29
2022/01/02 06:02:47;;;;;;;18.30;10.10;;;;;;;5.90;100.00;99625.92;103529;1300;24367;-25
2022/01/02 06:05:13;;;;;;;19.60;10.10;;;;;;;5.87;100.00;99627.09;103548;1300;24253;-29
2022/01/02 06:07:39;;;;;;;19.30;9.90;;;;;;;5.84;100.00;99619.42;103542;1300;22502;-29
2022/01/02 06:10:06;;;;;;;19.90;9.90;;;;;;;5.85;100.00;99625.77;103604;1300;24209;-25
2022/01/02 06:12:33;;;;;;;17.10;9.40;;;;;;;5.81;100.00;99623.99;103661;1300;24351;-25
2022/01/02 06:14:59;;;;;;;20.00;9.50;;;;;;;5.79;100.00;99623.45;103568;1300;24372;-25
2022/01/02 06:17:25;;;;;;;20.30;9.20;;;;;;;5.79;100.00;99634.20;103549;1300;24293;-29
2022/01/02 06:19:52;;;;;;;19.00;8.20;;;;;;;5.79;100.00;99634.91;103517;1300;24491;-29
2022/01/02 06:22:18;;;;;;;16.60;8.50;;;;;;;5.80;100.00;99631.25;103567;1300;22714;-25
2022/01/02 06:24:44;;;;;;;19.30;7.00;;;;;;;5.79;100.00;99624.73;103603;1300;24351;-24
2022/01/02 06:27:10;;;;;;;20.60;9.10;;;;;;;5.79;100.00;99631.33;103527;1300;25087;-29
2022/01/02 06:29:36;;;;;;;28.30;8.90;;;;;;;5.87;100.00;99627.45;103595;1300;24177;-29
2022/01/02 06:32:02;;;;;;;26.60;9.10;;;;;;;5.80;100.00;99615.63;103624;1301;24220;-25
2022/01/02 06:34:28;;;;;;;13.70;6.90;;;;;;;5.76;100.00;99610.69;103561;1300;24350;-25
2022/01/02 06:36:54;;;;;;;15.30;8.80;;;;;;;5.71;100.00;99600.43;103590;1300;24210;-25
2022/01/02 06:39:20;;;;;;;18.80;8.50;;;;;;;5.66;100.00;99597.88;103442;1303;24292;-30
2022/01/02 06:41:46;;;;;;;16.20;8.10;;;;;;;5.66;100.00;99597.73;103553;1300;24374;-25
2022/01/02 06:44:12;;;;;;;18.50;8.70;;;;;;;5.64;100.00;99597.00;103537;1300;24298;-25
2022/01/02 06:46:40;;;;;;;19.30;9.70;;;;;;;5.73;100.00;99587.84;103515;1301;24294;-30
2022/01/02 06:49:06;;;;;;;20.30;9.10;;;;;;;5.74;100.00;99577.83;103480;1300;24335;-30
2022/01/02 06:51:32;;;;;;;18.20;10.40;;;;;;;5.68;100.00;99564.04;103597;1300;24240;-30
2022/01/02 06:53:58;;;;;;;18.20;10.60;;;;;;;5.63;100.00;99557.56;103531;1299;24431;-25
2022/01/02 06:56:24;;;;;;;15.00;9.10;;;;;;;5.69;100.00;99557.09;103522;1303;24297;-30
2022/01/02 06:58:50;;;;;;;20.90;8.90;;;;;;;5.79;100.00;99554.36;103565;1300;24227;-25
2022/01/02 07:01:16;;;;;;;19.20;9.90;;;;;;;5.77;100.00;99550.13;103568;1300;24337;-29
2022/01/02 07:03:42;;;;;;;28.60;9.90;;;;;;;5.73;100.00;99537.62;103512;1300;24237;-25
2022/01/02 07:06:08;;;;;;;19.40;9.40;;;;;;;5.66;100.00;99524.99;103521;1300;22534;-24
2022/01/02 07:08:34;;;;;;;15.50;9.70;;;;;;;5.69;100.00;99529.04;103538;1300;24551;-24
2022/01/02 07:11:00;;;;;;;20.20;10.50;;;;;;;5.82;100.00;99533.60;103563;1301;24279;-25
2022/01/02 07:13:26;;;;;;;16.80;8.80;;;;;;;5.82;100.00;99537.17;103606;1300;24182;-32
2022/01/02 07:15:52;;;;;;;18.00;8.40;;;;;;;5.85;100.00;99541.98;103576;1300;24338;-25
2022/01/02 07:18:18;;;;;;;21.20;9.40;;;;;;;5.82;100.00;99540.77;103551;1300;24400;-29
2022/01/02 07:20:44;;;;;;;12.20;8.20;;;;;;;5.74;100.00;99543.71;103586;1300;24214;-25
2022/01/02 07:23:10;;;;;;;17.80;8.40;;;;;;;5.70;100.00;99553.92;103527;1300;22517;-29
2022/01/02 07:25:36;;;;;;;26.60;8.60;;;;;;;5.67;100.00;99560.51;103524;1303;24301;-30
2022/01/02 07:28:02;;;;;;;12.90;7.90;;;;;;;5.70;100.00;99560.53;103526;1303;24230;-29
2022/01/02 07:30:29;;;;;;;19.10;9.20;;;;;;;5.78;100.00;99544.56;103646;1300;24344;-29
2022/01/02 07:33:01;;;;;;;13.10;7.80;;;;;;;5.71;100.00;99545.84;103491;1302;24338;-26
2022/01/02 07:35:29;;;;;;;19.10;10.40;;;;;;;5.72;100.00;99551.27;103560;1300;22617;-24
2022/01/02 07:37:55;;;;;;;17.30;9.20;;;;;;;5.74;100.00;99549.77;103522;1300;24214;-24
2022/01/02 07:40:21;;;;;;;15.40;8.20;;;;;;;5.75;100.00;99541.15;103612;1300;24186;-29
2022/01/02 07:42:48;;;;;;;12.20;7.40;;;;;;;5.75;100.00;99538.29;103496;1302;24363;-31
2022/01/02 07:45:14;;;;;;;20.20;10.30;;;;;;;5.75;100.00;99535.75;103544;1303;24281;-25
2022/01/02 07:47:40;;;;;;;16.30;9.00;;;;;;;5.81;100.00;99534.83;103567;1300;22642;-29
2022/01/02 07:50:06;;;;;;;11.70;7.90;;;;;;;5.90;100.00;99535.13;103540;1300;24553;-26
2022/01/02 07:52:32;;;;;;;22.00;9.90;;;;;;;5.98;100.00;99536.25;103542;1302;24222;-30
2022/01/02 07:55:00;;;;;;;16.60;9.00;;;;;;;6.03;100.00;99533.80;103535;1302;24302;-30
2022/01/02 07:57:26;;;;;;;14.00;7.10;;;;;;;6.10;100.00;99528.44;103378;1303;24240;-27
2022/01/02 07:59:52;;;;;;;18.10;8.30;;;;;;;6.16;100.00;99519.58;103502;1302;24174;-29
2022/01/02 08:02:18;;;;;;;13.50;8.60;;;;;;;6.16;100.00;99524.55;103545;1302;24375;-25
2022/01/02 08:04:44;;;;;;;27.60;7.40;;;;;;;6.08;100.00;99530.90;103529;1301;24262;-32
2022/01/02 08:07:10;;;;;;;9.70;6.00;;;;;;;6.23;100.00;99524.73;103503;1302;24335;-29
2022/01/02 08:09:36;;;;;;;15.60;7.90;;;;;;;6.32;100.00;99521.45;103508;1302;24332;-25
2022/01/02 08:12:02;;;;;;;16.10;7.00;;;;;;;6.28;100.00;99517.05;103537;1302;24211;-27
2022/01/02 08:14:28;;;;;;;20.10;6.10;;;;;;;6.23;100.00;99522.38;103514;1302;24186;-25
2022/01/02 08:16:54;;;;;;;16.20;8.50;;;;;;;6.23;100.00;99514.17;103538;1302;24201;-25
2022/01/02 08:19:20;;;;;;;24.10;9.90;;;;;;;6.34;100.00;99511.08;103536;1302;24236;-25
2022/01/02 08:21:47;;;;;;;12.10;6.70;;;;;;;6.49;100.00;99504.24;103569;1302;24209;-27
2022/01/02 08:24:13;;;;;;;8.70;6.10;;;;;;;6.56;100.00;99501.87;103491;1302;24425;-30
2022/01/02 08:26:39;;;;;;;14.40;8.00;;;;;;;6.62;100.00;99496.39;103553;1302;24181;-29
2022/01/02 08:29:06;;;;;;;13.10;7.90;;;;;;;6.67;100.00;99493.08;103540;1302;24414;-29
2022/01/02 08:31:32;;;;;;;16.00;6.80;;;;;;;6.62;100.00;99487.72;103579;1302;24326;-30
2022/01/02 08:33:58;;;;;;;9.80;6.70;;;;;;;6.61;100.00;99485.11;103536;1303;22523;-27
2022/01/02 08:36:24;;;;;;;17.80;7.70;;;;;;;6.63;100.00;99481.95;103534;1302;24342;-25
2022/01/02 08:38:51;;;;;;;13.60;8.00;;;;;;;6.66;100.00;99482.67;103602;1302;24223;-26
2022/01/02 08:41:17;;;;;;;12.90;7.60;;;;;;;6.78;100.00;99478.52;103602;1302;24359;-30
2022/01/02 08:43:43;;;;;;;15.50;6.70;;;;;;;6.98;100.00;99478.86;103589;1302;24253;-25
2022/01/02 08:46:09;;;;;;;13.60;8.00;;;;;;;7.18;100.00;99477.50;103489;1302;24348;-29
2022/01/02 08:48:36;;;;;;;10.60;7.10;;;;;;;7.38;100.00;99487.17;103483;1302;24345;-25
2022/01/02 08:51:02;;;;;;;12.20;7.10;;;;;;;7.54;100.00;99492.50;103548;1302;24278;-30
2022/01/02 08:53:31;;;;;;;11.50;6.20;;;;;;;7.70;100.00;99495.46;103522;1301;24348;-30
2022/01/02 08:55:57;;;;;;;7.50;5.90;;;;;;;7.85;100.00;99497.17;103537;1302;23940;-29
2022/01/02 08:58:23;;;;;;;7.80;5.20;;;;;;;7.94;100.00;99487.20;103522;1302;24365;-30
2022/01/02 09:00:50;;;;;;;9.20;5.40;;;;;;;7.90;99.14;99489.63;103663;1302;24369;-30
2022/01/02 09:03:16;;;;;;;7.50;5.50;;;;;;;7.89;98.78;99484.02;103496;1302;22840;-30
2022/01/02 09:05:42;;;;;;;11.90;5.00;;;;;;;7.79;98.30;99479.88;103519;1302;24208;-29
2022/01/02 09:08:08;;;;;;;13.90;6.70;;;;;;;7.72;98.44;99476.08;103560;1302;24372;-30
2022/01/02 09:10:35;;;;;;;7.50;5.60;;;;;;;7.70;98.09;99472.90;103569;1302;24302;-29
2022/01/02 09:13:01;;;;;;;9.30;5.70;;;;;;;7.65;98.79;99475.79;103578;1302;24459;-29
2022/01/02 09:15:27;;;;;;;10.90;7.30;;;;;;;7.65;99.06;99471.27;103611;1302;24254;-27
2022/01/02 09:17:54;;;;;;;7.60;6.30;;;;;;;7.68;98.71;99470.58;103540;1302;24245;-31
2022/01/02 09:20:21;;;;;;;11.10;7.20;;;;;;;7.67;98.35;99465.88;103509;1302;24341;-25
2022/01/02 09:22:47;;;;;;;16.00;6.80;;;;;;;7.80;98.55;99462.79;103490;1302;24212;-29
2022/01/02 09:25:13;;;;;;;13.20;6.50;;;;;;;7.91;98.14;99459.34;103550;1302;22523;-27
2022/01/02 09:27:41;;;;;;;11.30;6.60;;;;;;;8.04;98.45;99448.31;103481;1300;24201;-25
2022/01/02 09:30:08;;;;;;;16.00;7.60;;;;;;;8.13;98.69;99441.33;103525;1302;22692;-29
2022/01/02 09:32:34;;;;;;;8.10;5.40;;;;;;;8.21;98.80;99449.64;103495;1302;24202;-29
2022/01/02 09:35:03;;;;;;;17.60;5.90;;;;;;;8.25;97.83;99454.20;103554;1302;22515;-29
2022/01/02 09:37:30;;;;;;;11.60;5.40;;;;;;;8.34;97.47;99450.73;103620;1302;24305;-26
2022/01/02 09:39:57;;;;;;;7.20;5.60;;;;;;;8.36;97.37;99461.30;103536;1302;24309;-29
2022/01/02 09:42:23;;;;;;;14.20;6.80;;;;;;;8.25;98.05;99461.98;103622;1302;24372;-25
2022/01/02 09:44:50;;;;;;;11.30;5.60;;;;;;;8.28;98.00;99462.56;103620;1302;24219;-25
2022/01/02 09:47:20;;;;;;;14.90;6.80;;;;;;;8.37;98.96;99451.03;103678;1302;24379;-30
2022/01/02 09:49:50;;;;;;;;;;;;;;;8.46;98.32;99448.52;103621;1302;24230;-30
2022/01/02 09:52:16;;;;;;;9.70;5.90;;;;;;;8.54;98.23;99437.23;103544;1302;24142;-30
2022/01/02 09:54:42;;;;;;;13.00;5.20;;;;;;;8.63;97.39;99438.69;103825;1302;22754;-24
2022/01/02 09:57:09;;;;;;;19.20;7.30;;;;;;;8.59;97.36;99441.61;103566;1302;24433;-25
2022/01/02 09:59:35;;;;;;;14.90;5.80;;;;;;;8.60;97.04;99433.30;103516;1302;24167;-29
2022/01/02 10:02:02;;;;;;;14.00;5.70;;;;;;;8.66;96.77;99427.90;103675;1302;24312;-25
2022/01/02 10:04:33;;;;;;;9.70;5.90;;;;;;;8.59;96.75;99430.92;103901;1300;24388;-26
2022/01/02 10:06:59;;;;;;;9.50;5.30;;;;;;;8.67;97.13;99427.13;103718;1302;23037;-25
2022/01/02 10:09:32;;;;;;;10.30;5.40;;;;;;;8.74;97.19;99422.55;103551;1302;24209;-30
2022/01/02 10:12:19;;;;;;;20.10;5.30;;;;;;;8.87;96.73;99424.34;103479;1302;25361;-25
2022/01/02 10:14:45;;;;;;;9.50;5.60;;;;;;;8.98;95.97;99411.41;103717;1302;24252;-32
2022/01/02 10:17:11;;;;;;;10.60;5.20;;;;;;;8.93;94.79;99406.27;103662;1302;24237;-29
2022/01/02 10:19:42;;;;;;;8.80;4.80;;;;;;;9.00;94.79;99403.98;103611;1302;24233;-32
2022/01/02 10:22:08;;;;;;;6.20;5.40;;;;;;;9.08;93.83;99388.59;103612;1302;22714;-26
2022/01/02 10:24:36;;;;;;;7.50;4.50;;;;;;;8.99;93.85;99389.88;103680;1302;24192;-29
2022/01/02 10:27:09;;;;;;;6.80;5.10;;;;;;;9.07;92.87;99375.48;103635;1302;24335;-32
2022/01/02 10:29:40;;;;;;;7.20;5.40;;;;;;;8.91;94.06;99383.88;103552;1302;24404;-32
2022/01/02 10:32:12;;;;;;;10.00;6.10;;;;;;;9.08;92.14;99381.25;103665;1302;22754;-26
2022/01/02 10:34:40;;;;;;;6.70;4.50;;;;;;;8.93;93.29;99384.16;103620;1302;24211;-26
2022/01/02 10:37:06;;;;;;;10.00;6.00;;;;;;;9.25;91.62;99377.38;103620;1302;24328;-30
2022/01/02 10:39:32;;;;;;;11.20;6.30;;;;;;;9.08;92.11;99381.30;103815;1302;22655;-30
2022/01/02 10:41:58;;;;;;;8.50;4.80;;;;;;;9.14;92.32;99384.99;103609;1302;24320;-25
2022/01/02 10:44:26;;;;;;;11.10;6.40;;;;;;;9.31;90.54;99380.95;103610;1302;23007;-25
2022/01/02 10:46:59;;;;;;;10.90;5.80;;;;;;;9.12;92.53;99373.61;103573;1302;24174;-25
2022/01/02 10:49:25;;;;;;;8.80;3.40;;;;;;;9.17;92.08;99375.41;103525;1302;25241;-32
2022/01/02 10:51:51;;;;;;;9.50;5.10;;;;;;;9.27;91.62;99371.83;103551;1302;24371;-25
2022/01/02 10:54:17;;;;;;;4.40;2.90;;;;;;;9.50;90.13;99371.95;103522;1302;24229;-25
2022/01/02 10:56:43;;;;;;;17.30;5.70;;;;;;;9.39;89.91;99372.46;103523;1302;24215;-24
2022/01/02 10:59:11;;;;;;;5.30;3.50;;;;;;;9.52;88.56;99369.59;103602;1302;24316;-25
2022/01/02 11:01:37;;;;;;;8.50;3.70;;;;;;;9.46;88.38;99378.01;103540;1302;22860;-24
2022/01/02 11:04:03;;;;;;;6.60;4.10;;;;;;;9.64;88.07;99372.52;103533;1301;22747;-29
2022/01/02 11:06:30;;;;;;;13.60;4.60;;;;;;;9.84;85.42;99371.02;103591;1302;22770;-30
2022/01/02 11:08:58;;;;;;;7.50;3.40;;;;;;;9.87;85.51;99360.73;103494;1302;24240;-25
2022/01/02 11:11:24;;;;;;;10.10;3.70;;;;;;;9.95;85.46;99357.45;103517;1302;24229;-30
2022/01/02 11:13:50;;;;;;;5.60;3.20;;;;;;;10.24;83.86;99350.75;103706;1302;24255;-30
2022/01/02 11:16:17;;;;;;;8.40;3.70;;;;;;;10.41;83.02;99339.30;103666;1302;24386;-29
2022/01/02 11:18:43;;;;;;;7.90;3.30;;;;;;;10.44;81.92;99330.77;103765;1302;24233;-29
2022/01/02 11:21:10;;;;;;;5.90;3.60;;;;;;;10.20;83.81;99329.24;103558;1302;24188;-29